sensor_id;sensor_type;location;lat;lon;timestamp;temperature;humidity
12329;DHT22;6230;52.390;10.256;2024-02-23T00:01:31;12.70;61.10
12329;DHT22;6230;52.390;10.256;2024-02-23T00:03:56;12.70;61.40
12329;DHT22;6230;52.390;10.256;2024-02-23T00:06:22;12.60;61.10
12329;DHT22;6230;52.390;10.256;2024-02-23T00:08:53;12.60;61.00
12329;DHT22;6230;52.390;10.256;2024-02-23T00:11:20;12.60;61.90
12329;DHT22;6230;52.390;10.256;2024-02-23T00:13:46;12.60;61.50
12329;DHT22;6230;52.390;10.256;2024-02-23T00:16:12;12.60;61.70
12329;DHT22;6230;52.390;10.256;2024-02-23T00:18:38;12.60;61.60
12329;DHT22;6230;52.390;10.256;2024-02-23T00:21:04;12.50;61.40
12329;DHT22;6230;52.390;10.256;2024-02-23T00:23:29;12.50;61.60
12329;DHT22;6230;52.390;10.256;2024-02-23T00:25:55;12.50;61.60
12329;DHT22;6230;52.390;10.256;2024-02-23T00:28:21;12.50;61.10
12329;DHT22;6230;52.390;10.256;2024-02-23T00:30:46;12.50;60.30
12329;DHT22;6230;52.390;10.256;2024-02-23T00:33:12;12.40;59.60
12329;DHT22;6230;52.390;10.256;2024-02-23T00:35:38;12.40;59.60
12329;DHT22;6230;52.390;10.256;2024-02-23T00:38:03;12.40;59.70
12329;DHT22;6230;52.390;10.256;2024-02-23T00:40:29;12.40;59.80
12329;DHT22;6230;52.390;10.256;2024-02-23T00:42:55;12.40;60.50
12329;DHT22;6230;52.390;10.256;2024-02-23T00:45:20;12.40;60.30
12329;DHT22;6230;52.390;10.256;2024-02-23T00:47:47;12.40;60.00
12329;DHT22;6230;52.390;10.256;2024-02-23T00:50:12;12.30;60.40
12329;DHT22;6230;52.390;10.256;2024-02-23T00:52:38;12.30;60.40
12329;DHT22;6230;52.390;10.256;2024-02-23T00:55:04;12.30;60.40
12329;DHT22;6230;52.390;10.256;2024-02-23T00:57:29;12.30;60.00
12329;DHT22;6230;52.390;10.256;2024-02-23T00:59:58;12.30;60.50
12329;DHT22;6230;52.390;10.256;2024-02-23T01:02:24;12.30;60.40
12329;DHT22;6230;52.390;10.256;2024-02-23T01:04:49;12.30;59.90
12329;DHT22;6230;52.390;10.256;2024-02-23T01:07:15;12.20;59.80
12329;DHT22;6230;52.390;10.256;2024-02-23T01:09:41;12.30;60.10
12329;DHT22;6230;52.390;10.256;2024-02-23T01:12:06;12.30;60.10
12329;DHT22;6230;52.390;10.256;2024-02-23T01:14:32;12.20;59.70
12329;DHT22;6230;52.390;10.256;2024-02-23T01:16:58;12.30;59.90
12329;DHT22;6230;52.390;10.256;2024-02-23T01:19:23;12.30;60.00
12329;DHT22;6230;52.390;10.256;2024-02-23T01:21:49;12.30;59.70
12329;DHT22;6230;52.390;10.256;2024-02-23T01:24:21;12.30;59.50
12329;DHT22;6230;52.390;10.256;2024-02-23T01:26:47;12.30;59.80
12329;DHT22;6230;52.390;10.256;2024-02-23T01:29:12;12.30;60.00
12329;DHT22;6230;52.390;10.256;2024-02-23T01:31:38;12.30;60.10
12329;DHT22;6230;52.390;10.256;2024-02-23T01:34:04;12.30;60.10
12329;DHT22;6230;52.390;10.256;2024-02-23T01:36:29;12.30;60.00
12329;DHT22;6230;52.390;10.256;2024-02-23T01:38:55;12.20;60.00
12329;DHT22;6230;52.390;10.256;2024-02-23T01:41:20;12.20;60.00
12329;DHT22;6230;52.390;10.256;2024-02-23T01:43:46;12.20;59.70
12329;DHT22;6230;52.390;10.256;2024-02-23T01:46:12;12.20;59.90
12329;DHT22;6230;52.390;10.256;2024-02-23T01:48:38;12.10;59.40
12329;DHT22;6230;52.390;10.256;2024-02-23T01:51:04;12.10;59.30
12329;DHT22;6230;52.390;10.256;2024-02-23T01:53:30;12.00;59.00
12329;DHT22;6230;52.390;10.256;2024-02-23T01:55:57;12.00;59.10
12329;DHT22;6230;52.390;10.256;2024-02-23T01:58:24;11.90;59.10
12329;DHT22;6230;52.390;10.256;2024-02-23T02:00:50;11.90;59.30
12329;DHT22;6230;52.390;10.256;2024-02-23T02:03:15;11.80;59.50
12329;DHT22;6230;52.390;10.256;2024-02-23T02:05:41;11.80;59.40
12329;DHT22;6230;52.390;10.256;2024-02-23T02:08:07;11.70;59.40
12329;DHT22;6230;52.390;10.256;2024-02-23T02:10:32;11.70;59.60
12329;DHT22;6230;52.390;10.256;2024-02-23T02:13:05;11.50;59.80
12329;DHT22;6230;52.390;10.256;2024-02-23T02:15:31;11.50;60.10
12329;DHT22;6230;52.390;10.256;2024-02-23T02:17:56;11.40;60.70
12329;DHT22;6230;52.390;10.256;2024-02-23T02:20:24;11.20;61.00
12329;DHT22;6230;52.390;10.256;2024-02-23T02:22:50;11.20;61.40
12329;DHT22;6230;52.390;10.256;2024-02-23T02:25:16;11.10;61.60
12329;DHT22;6230;52.390;10.256;2024-02-23T02:27:41;11.10;61.90
12329;DHT22;6230;52.390;10.256;2024-02-23T02:30:08;11.00;62.90
12329;DHT22;6230;52.390;10.256;2024-02-23T02:32:35;11.00;62.30
12329;DHT22;6230;52.390;10.256;2024-02-23T02:35:01;10.90;62.40
12329;DHT22;6230;52.390;10.256;2024-02-23T02:37:26;10.90;62.70
12329;DHT22;6230;52.390;10.256;2024-02-23T02:39:52;10.80;62.80
12329;DHT22;6230;52.390;10.256;2024-02-23T02:42:17;10.80;62.90
12329;DHT22;6230;52.390;10.256;2024-02-23T02:44:43;10.80;63.00
12329;DHT22;6230;52.390;10.256;2024-02-23T02:47:08;10.70;63.00
12329;DHT22;6230;52.390;10.256;2024-02-23T02:49:34;10.70;63.10
12329;DHT22;6230;52.390;10.256;2024-02-23T02:51:59;10.60;63.20
12329;DHT22;6230;52.390;10.256;2024-02-23T02:54:25;10.60;63.20
12329;DHT22;6230;52.390;10.256;2024-02-23T02:56:51;10.60;63.40
12329;DHT22;6230;52.390;10.256;2024-02-23T02:59:20;10.60;63.40
12329;DHT22;6230;52.390;10.256;2024-02-23T03:01:45;10.60;63.40
12329;DHT22;6230;52.390;10.256;2024-02-23T03:04:12;10.50;63.50
12329;DHT22;6230;52.390;10.256;2024-02-23T03:06:38;10.50;63.50
12329;DHT22;6230;52.390;10.256;2024-02-23T03:09:03;10.40;63.60
12329;DHT22;6230;52.390;10.256;2024-02-23T03:11:30;10.40;63.60
12329;DHT22;6230;52.390;10.256;2024-02-23T03:13:55;10.40;63.80
12329;DHT22;6230;52.390;10.256;2024-02-23T03:16:21;10.30;63.80
12329;DHT22;6230;52.390;10.256;2024-02-23T03:18:51;10.30;63.90
12329;DHT22;6230;52.390;10.256;2024-02-23T03:21:17;10.30;64.00
12329;DHT22;6230;52.390;10.256;2024-02-23T03:23:43;10.30;64.10
12329;DHT22;6230;52.390;10.256;2024-02-23T03:26:08;10.30;64.10
12329;DHT22;6230;52.390;10.256;2024-02-23T03:28:34;10.30;64.10
12329;DHT22;6230;52.390;10.256;2024-02-23T03:31:00;10.30;64.10
12329;DHT22;6230;52.390;10.256;2024-02-23T03:33:26;10.20;64.10
12329;DHT22;6230;52.390;10.256;2024-02-23T03:35:52;10.20;64.10
12329;DHT22;6230;52.390;10.256;2024-02-23T03:38:18;10.20;64.20
12329;DHT22;6230;52.390;10.256;2024-02-23T03:40:43;10.20;64.20
12329;DHT22;6230;52.390;10.256;2024-02-23T03:43:09;10.20;64.90
12329;DHT22;6230;52.390;10.256;2024-02-23T03:45:34;10.20;64.20
12329;DHT22;6230;52.390;10.256;2024-02-23T03:48:00;10.20;64.20
12329;DHT22;6230;52.390;10.256;2024-02-23T03:50:27;10.20;64.30
12329;DHT22;6230;52.390;10.256;2024-02-23T03:52:52;10.10;64.20
12329;DHT22;6230;52.390;10.256;2024-02-23T03:55:18;10.10;64.10
12329;DHT22;6230;52.390;10.256;2024-02-23T03:57:43;10.10;64.20
12329;DHT22;6230;52.390;10.256;2024-02-23T04:00:09;10.10;64.30
12329;DHT22;6230;52.390;10.256;2024-02-23T04:02:35;10.10;64.30
12329;DHT22;6230;52.390;10.256;2024-02-23T04:05:00;10.10;64.30
12329;DHT22;6230;52.390;10.256;2024-02-23T04:07:26;10.10;64.30
12329;DHT22;6230;52.390;10.256;2024-02-23T04:09:51;10.10;64.30
12329;DHT22;6230;52.390;10.256;2024-02-23T04:12:21;10.10;64.40
12329;DHT22;6230;52.390;10.256;2024-02-23T04:14:47;10.00;64.20
12329;DHT22;6230;52.390;10.256;2024-02-23T04:17:12;10.00;64.10
12329;DHT22;6230;52.390;10.256;2024-02-23T04:19:42;10.00;64.20
12329;DHT22;6230;52.390;10.256;2024-02-23T04:22:08;10.00;64.20
12329;DHT22;6230;52.390;10.256;2024-02-23T04:24:36;10.00;64.30
12329;DHT22;6230;52.390;10.256;2024-02-23T04:27:02;10.00;64.20
12329;DHT22;6230;52.390;10.256;2024-02-23T04:29:27;10.00;64.20
12329;DHT22;6230;52.390;10.256;2024-02-23T04:31:53;9.90;64.00
12329;DHT22;6230;52.390;10.256;2024-02-23T04:34:18;10.00;64.20
12329;DHT22;6230;52.390;10.256;2024-02-23T04:36:44;9.90;64.20
12329;DHT22;6230;52.390;10.256;2024-02-23T04:39:09;9.90;64.30
12329;DHT22;6230;52.390;10.256;2024-02-23T04:41:35;9.90;64.20
12329;DHT22;6230;52.390;10.256;2024-02-23T04:44:01;9.90;64.30
12329;DHT22;6230;52.390;10.256;2024-02-23T04:46:27;10.00;64.30
12329;DHT22;6230;52.390;10.256;2024-02-23T04:48:52;9.90;64.20
12329;DHT22;6230;52.390;10.256;2024-02-23T04:51:18;10.00;64.40
12329;DHT22;6230;52.390;10.256;2024-02-23T04:53:44;10.00;64.30
12329;DHT22;6230;52.390;10.256;2024-02-23T04:56:10;10.00;64.10
12329;DHT22;6230;52.390;10.256;2024-02-23T04:58:35;10.00;64.10
12329;DHT22;6230;52.390;10.256;2024-02-23T05:01:03;10.00;64.00
12329;DHT22;6230;52.390;10.256;2024-02-23T05:03:28;10.00;64.10
12329;DHT22;6230;52.390;10.256;2024-02-23T05:05:54;10.00;64.20
12329;DHT22;6230;52.390;10.256;2024-02-23T05:08:20;10.00;64.10
12329;DHT22;6230;52.390;10.256;2024-02-23T05:10:46;10.00;64.10
12329;DHT22;6230;52.390;10.256;2024-02-23T05:13:13;10.00;64.10
12329;DHT22;6230;52.390;10.256;2024-02-23T05:15:39;10.00;64.00
12329;DHT22;6230;52.390;10.256;2024-02-23T05:18:04;10.00;63.90
12329;DHT22;6230;52.390;10.256;2024-02-23T05:20:30;10.00;63.90
12329;DHT22;6230;52.390;10.256;2024-02-23T05:22:56;9.90;63.90
12329;DHT22;6230;52.390;10.256;2024-02-23T05:25:21;9.90;63.90
12329;DHT22;6230;52.390;10.256;2024-02-23T05:27:47;9.90;63.90
12329;DHT22;6230;52.390;10.256;2024-02-23T05:30:13;9.90;63.90
12329;DHT22;6230;52.390;10.256;2024-02-23T05:32:38;9.90;64.00
12329;DHT22;6230;52.390;10.256;2024-02-23T05:35:04;9.90;64.00
12329;DHT22;6230;52.390;10.256;2024-02-23T05:37:30;9.90;64.00
12329;DHT22;6230;52.390;10.256;2024-02-23T05:39:56;9.90;64.00
12329;DHT22;6230;52.390;10.256;2024-02-23T05:42:21;9.90;64.00
12329;DHT22;6230;52.390;10.256;2024-02-23T05:44:47;9.90;63.90
12329;DHT22;6230;52.390;10.256;2024-02-23T05:47:14;9.90;64.00
12329;DHT22;6230;52.390;10.256;2024-02-23T05:49:39;9.90;63.90
12329;DHT22;6230;52.390;10.256;2024-02-23T05:52:05;9.90;63.80
12329;DHT22;6230;52.390;10.256;2024-02-23T05:54:31;9.90;63.70
12329;DHT22;6230;52.390;10.256;2024-02-23T05:56:57;9.90;63.70
12329;DHT22;6230;52.390;10.256;2024-02-23T05:59:22;9.90;63.80
12329;DHT22;6230;52.390;10.256;2024-02-23T06:01:48;10.00;63.70
12329;DHT22;6230;52.390;10.256;2024-02-23T06:04:13;10.00;63.70
12329;DHT22;6230;52.390;10.256;2024-02-23T06:06:42;10.00;63.80
12329;DHT22;6230;52.390;10.256;2024-02-23T06:09:11;10.00;63.60
12329;DHT22;6230;52.390;10.256;2024-02-23T06:11:36;10.00;63.70
12329;DHT22;6230;52.390;10.256;2024-02-23T06:14:02;10.00;63.60
12329;DHT22;6230;52.390;10.256;2024-02-23T06:16:28;10.00;63.70
12329;DHT22;6230;52.390;10.256;2024-02-23T06:18:53;10.00;63.60
12329;DHT22;6230;52.390;10.256;2024-02-23T06:21:19;10.00;63.50
12329;DHT22;6230;52.390;10.256;2024-02-23T06:23:44;10.10;63.70
12329;DHT22;6230;52.390;10.256;2024-02-23T06:26:10;10.00;63.60
12329;DHT22;6230;52.390;10.256;2024-02-23T06:28:37;10.00;63.70
12329;DHT22;6230;52.390;10.256;2024-02-23T06:31:08;10.00;63.60
12329;DHT22;6230;52.390;10.256;2024-02-23T06:33:34;10.10;63.60
12329;DHT22;6230;52.390;10.256;2024-02-23T06:36:00;10.00;63.40
12329;DHT22;6230;52.390;10.256;2024-02-23T06:38:26;10.00;63.40
12329;DHT22;6230;52.390;10.256;2024-02-23T06:40:52;10.00;63.30
12329;DHT22;6230;52.390;10.256;2024-02-23T06:43:18;10.00;63.30
12329;DHT22;6230;52.390;10.256;2024-02-23T06:45:44;10.00;63.30
12329;DHT22;6230;52.390;10.256;2024-02-23T06:48:10;10.00;64.10
12329;DHT22;6230;52.390;10.256;2024-02-23T06:50:35;10.00;63.30
12329;DHT22;6230;52.390;10.256;2024-02-23T06:53:01;10.00;63.40
12329;DHT22;6230;52.390;10.256;2024-02-23T06:55:27;10.00;63.20
12329;DHT22;6230;52.390;10.256;2024-02-23T06:57:54;10.00;63.80
12329;DHT22;6230;52.390;10.256;2024-02-23T07:00:20;10.00;63.00
12329;DHT22;6230;52.390;10.256;2024-02-23T07:02:47;10.00;63.00
12329;DHT22;6230;52.390;10.256;2024-02-23T07:05:12;10.00;62.70
12329;DHT22;6230;52.390;10.256;2024-02-23T07:07:39;10.00;62.90
12329;DHT22;6230;52.390;10.256;2024-02-23T07:10:06;10.00;62.90
12329;DHT22;6230;52.390;10.256;2024-02-23T07:12:33;10.00;62.70
12329;DHT22;6230;52.390;10.256;2024-02-23T07:14:59;10.00;62.70
12329;DHT22;6230;52.390;10.256;2024-02-23T07:17:25;10.00;62.70
12329;DHT22;6230;52.390;10.256;2024-02-23T07:19:50;10.00;62.80
12329;DHT22;6230;52.390;10.256;2024-02-23T07:22:17;10.00;62.60
12329;DHT22;6230;52.390;10.256;2024-02-23T07:24:45;10.00;62.70
12329;DHT22;6230;52.390;10.256;2024-02-23T07:27:11;10.00;62.60
12329;DHT22;6230;52.390;10.256;2024-02-23T07:29:37;10.00;62.80
12329;DHT22;6230;52.390;10.256;2024-02-23T07:32:02;10.10;62.90
12329;DHT22;6230;52.390;10.256;2024-02-23T07:34:28;10.10;62.90
12329;DHT22;6230;52.390;10.256;2024-02-23T07:36:54;10.10;62.80
12329;DHT22;6230;52.390;10.256;2024-02-23T07:39:20;10.10;62.50
12329;DHT22;6230;52.390;10.256;2024-02-23T07:41:47;10.10;62.60
12329;DHT22;6230;52.390;10.256;2024-02-23T07:44:12;10.10;62.70
12329;DHT22;6230;52.390;10.256;2024-02-23T07:46:38;10.20;62.70
12329;DHT22;6230;52.390;10.256;2024-02-23T07:49:05;10.20;62.70
12329;DHT22;6230;52.390;10.256;2024-02-23T07:51:31;10.20;62.30
12329;DHT22;6230;52.390;10.256;2024-02-23T07:53:58;10.10;62.40
12329;DHT22;6230;52.390;10.256;2024-02-23T07:56:23;10.20;62.40
12329;DHT22;6230;52.390;10.256;2024-02-23T07:58:49;10.20;62.50
12329;DHT22;6230;52.390;10.256;2024-02-23T08:01:14;10.30;62.70
12329;DHT22;6230;52.390;10.256;2024-02-23T08:03:40;10.30;62.50
12329;DHT22;6230;52.390;10.256;2024-02-23T08:06:06;10.30;62.50
12329;DHT22;6230;52.390;10.256;2024-02-23T08:08:32;10.30;62.30
12329;DHT22;6230;52.390;10.256;2024-02-23T08:11:01;10.40;62.30
12329;DHT22;6230;52.390;10.256;2024-02-23T08:13:27;10.40;62.20
12329;DHT22;6230;52.390;10.256;2024-02-23T08:15:52;10.40;62.00
12329;DHT22;6230;52.390;10.256;2024-02-23T08:18:18;10.40;62.20
12329;DHT22;6230;52.390;10.256;2024-02-23T08:20:43;10.40;62.30
12329;DHT22;6230;52.390;10.256;2024-02-23T08:23:09;10.40;62.30
12329;DHT22;6230;52.390;10.256;2024-02-23T08:25:35;10.40;62.20
12329;DHT22;6230;52.390;10.256;2024-02-23T08:28:01;10.40;62.30
12329;DHT22;6230;52.390;10.256;2024-02-23T08:30:27;10.40;62.40
12329;DHT22;6230;52.390;10.256;2024-02-23T08:32:52;10.40;62.40
12329;DHT22;6230;52.390;10.256;2024-02-23T08:35:18;10.40;62.40
12329;DHT22;6230;52.390;10.256;2024-02-23T08:37:44;10.40;62.20
12329;DHT22;6230;52.390;10.256;2024-02-23T08:40:11;10.40;62.10
12329;DHT22;6230;52.390;10.256;2024-02-23T08:42:37;10.40;62.10
12329;DHT22;6230;52.390;10.256;2024-02-23T08:45:03;10.40;62.00
12329;DHT22;6230;52.390;10.256;2024-02-23T08:47:29;10.40;62.10
12329;DHT22;6230;52.390;10.256;2024-02-23T08:49:58;10.40;62.10
12329;DHT22;6230;52.390;10.256;2024-02-23T08:52:24;10.40;62.00
12329;DHT22;6230;52.390;10.256;2024-02-23T08:54:50;10.40;61.90
12329;DHT22;6230;52.390;10.256;2024-02-23T08:57:16;10.40;62.00
12329;DHT22;6230;52.390;10.256;2024-02-23T08:59:45;10.50;62.30
12329;DHT22;6230;52.390;10.256;2024-02-23T09:02:10;10.60;62.10
12329;DHT22;6230;52.390;10.256;2024-02-23T09:04:36;10.60;62.10
12329;DHT22;6230;52.390;10.256;2024-02-23T09:07:02;10.60;62.00
12329;DHT22;6230;52.390;10.256;2024-02-23T09:09:27;10.70;62.10
12329;DHT22;6230;52.390;10.256;2024-02-23T09:11:53;10.70;62.00
12329;DHT22;6230;52.390;10.256;2024-02-23T09:14:19;10.70;62.00
12329;DHT22;6230;52.390;10.256;2024-02-23T09:16:44;10.80;61.80
12329;DHT22;6230;52.390;10.256;2024-02-23T09:19:11;10.80;61.80
12329;DHT22;6230;52.390;10.256;2024-02-23T09:21:37;10.80;61.70
12329;DHT22;6230;52.390;10.256;2024-02-23T09:24:03;10.80;61.80
12329;DHT22;6230;52.390;10.256;2024-02-23T09:26:29;10.80;61.70
12329;DHT22;6230;52.390;10.256;2024-02-23T09:28:54;10.90;60.90
12329;DHT22;6230;52.390;10.256;2024-02-23T09:31:20;10.80;60.90
12329;DHT22;6230;52.390;10.256;2024-02-23T09:33:46;10.90;60.60
12329;DHT22;6230;52.390;10.256;2024-02-23T09:36:12;10.90;60.70
12329;DHT22;6230;52.390;10.256;2024-02-23T09:38:37;10.90;60.90
12329;DHT22;6230;52.390;10.256;2024-02-23T09:41:03;11.00;61.10
12329;DHT22;6230;52.390;10.256;2024-02-23T09:43:29;11.10;61.00
12329;DHT22;6230;52.390;10.256;2024-02-23T09:45:58;11.20;60.90
12329;DHT22;6230;52.390;10.256;2024-02-23T09:48:25;11.20;61.10
12329;DHT22;6230;52.390;10.256;2024-02-23T09:50:52;11.40;61.00
12329;DHT22;6230;52.390;10.256;2024-02-23T09:53:19;11.40;60.70
12329;DHT22;6230;52.390;10.256;2024-02-23T09:55:47;11.50;60.40
12329;DHT22;6230;52.390;10.256;2024-02-23T09:58:14;11.60;60.50
12329;DHT22;6230;52.390;10.256;2024-02-23T10:00:42;11.60;60.30
12329;DHT22;6230;52.390;10.256;2024-02-23T10:03:08;11.60;60.20
12329;DHT22;6230;52.390;10.256;2024-02-23T10:05:34;11.70;60.80
12329;DHT22;6230;52.390;10.256;2024-02-23T10:07:59;11.90;60.90
12329;DHT22;6230;52.390;10.256;2024-02-23T10:10:34;12.10;60.50
12329;DHT22;6230;52.390;10.256;2024-02-23T10:13:01;12.40;60.60
12329;DHT22;6230;52.390;10.256;2024-02-23T10:15:29;12.50;60.60
12329;DHT22;6230;52.390;10.256;2024-02-23T10:17:55;12.60;60.00
12329;DHT22;6230;52.390;10.256;2024-02-23T10:20:21;12.70;60.10
12329;DHT22;6230;52.390;10.256;2024-02-23T10:22:47;12.80;59.90
12329;DHT22;6230;52.390;10.256;2024-02-23T10:25:12;12.80;59.70
12329;DHT22;6230;52.390;10.256;2024-02-23T10:27:40;12.90;59.60
12329;DHT22;6230;52.390;10.256;2024-02-23T10:30:06;12.90;59.30
12329;DHT22;6230;52.390;10.256;2024-02-23T10:32:32;13.00;59.20
12329;DHT22;6230;52.390;10.256;2024-02-23T10:35:00;12.90;58.70
12329;DHT22;6230;52.390;10.256;2024-02-23T10:37:30;12.90;58.90
12329;DHT22;6230;52.390;10.256;2024-02-23T10:39:57;12.90;59.00
12329;DHT22;6230;52.390;10.256;2024-02-23T10:42:24;12.90;59.50
12329;DHT22;6230;52.390;10.256;2024-02-23T10:44:51;13.10;59.20
12329;DHT22;6230;52.390;10.256;2024-02-23T10:47:20;13.30;59.00
12329;DHT22;6230;52.390;10.256;2024-02-23T10:49:47;13.50;59.10
12329;DHT22;6230;52.390;10.256;2024-02-23T10:52:13;13.60;58.50
12329;DHT22;6230;52.390;10.256;2024-02-23T10:54:40;13.70;58.20
12329;DHT22;6230;52.390;10.256;2024-02-23T10:57:06;13.90;58.60
12329;DHT22;6230;52.390;10.256;2024-02-23T10:59:32;14.00;58.00
12329;DHT22;6230;52.390;10.256;2024-02-23T11:01:59;14.10;58.30
12329;DHT22;6230;52.390;10.256;2024-02-23T11:04:26;14.20;57.80
12329;DHT22;6230;52.390;10.256;2024-02-23T11:06:54;14.30;57.60
12329;DHT22;6230;52.390;10.256;2024-02-23T11:09:23;14.30;57.20
12329;DHT22;6230;52.390;10.256;2024-02-23T11:11:57;14.30;56.70
12329;DHT22;6230;52.390;10.256;2024-02-23T11:14:34;14.30;56.70
12329;DHT22;6230;52.390;10.256;2024-02-23T11:17:00;14.30;56.90
12329;DHT22;6230;52.390;10.256;2024-02-23T11:19:37;14.40;56.90
12329;DHT22;6230;52.390;10.256;2024-02-23T11:22:04;14.50;57.10
12329;DHT22;6230;52.390;10.256;2024-02-23T11:24:31;14.40;56.50
12329;DHT22;6230;52.390;10.256;2024-02-23T11:26:57;14.30;56.90
12329;DHT22;6230;52.390;10.256;2024-02-23T11:29:26;14.30;57.00
12329;DHT22;6230;52.390;10.256;2024-02-23T11:31:52;14.20;57.00
12329;DHT22;6230;52.390;10.256;2024-02-23T11:34:22;14.20;57.40
12329;DHT22;6230;52.390;10.256;2024-02-23T11:36:53;14.20;57.40
12329;DHT22;6230;52.390;10.256;2024-02-23T11:39:22;14.30;57.50
12329;DHT22;6230;52.390;10.256;2024-02-23T11:41:49;14.50;57.40
12329;DHT22;6230;52.390;10.256;2024-02-23T11:44:15;14.60;56.80
12329;DHT22;6230;52.390;10.256;2024-02-23T11:46:43;14.40;56.40
12329;DHT22;6230;52.390;10.256;2024-02-23T11:49:08;14.20;55.70
12329;DHT22;6230;52.390;10.256;2024-02-23T11:51:35;14.00;55.20
12329;DHT22;6230;52.390;10.256;2024-02-23T11:54:01;13.70;55.60
12329;DHT22;6230;52.390;10.256;2024-02-23T11:56:27;13.60;56.10
12329;DHT22;6230;52.390;10.256;2024-02-23T11:58:54;13.50;56.20
12329;DHT22;6230;52.390;10.256;2024-02-23T12:01:20;13.50;56.80
12329;DHT22;6230;52.390;10.256;2024-02-23T12:03:46;13.50;56.30
12329;DHT22;6230;52.390;10.256;2024-02-23T12:06:14;13.50;56.30
12329;DHT22;6230;52.390;10.256;2024-02-23T12:08:41;13.40;56.50
12329;DHT22;6230;52.390;10.256;2024-02-23T12:11:08;13.40;56.40
12329;DHT22;6230;52.390;10.256;2024-02-23T12:13:34;13.40;56.10
12329;DHT22;6230;52.390;10.256;2024-02-23T12:16:00;13.30;56.20
12329;DHT22;6230;52.390;10.256;2024-02-23T12:18:26;13.30;56.60
12329;DHT22;6230;52.390;10.256;2024-02-23T12:20:52;13.40;56.20
12329;DHT22;6230;52.390;10.256;2024-02-23T12:23:18;13.40;55.90
12329;DHT22;6230;52.390;10.256;2024-02-23T12:25:59;13.30;56.10
12329;DHT22;6230;52.390;10.256;2024-02-23T12:28:26;13.30;55.90
12329;DHT22;6230;52.390;10.256;2024-02-23T12:31:02;13.20;55.60
12329;DHT22;6230;52.390;10.256;2024-02-23T12:33:28;13.20;55.80
12329;DHT22;6230;52.390;10.256;2024-02-23T12:35:55;13.10;55.70
12329;DHT22;6230;52.390;10.256;2024-02-23T12:38:24;13.10;55.80
12329;DHT22;6230;52.390;10.256;2024-02-23T12:40:50;13.10;55.80
12329;DHT22;6230;52.390;10.256;2024-02-23T12:43:16;13.00;55.80
12329;DHT22;6230;52.390;10.256;2024-02-23T12:45:42;13.10;55.80
12329;DHT22;6230;52.390;10.256;2024-02-23T12:48:10;13.00;55.10
12329;DHT22;6230;52.390;10.256;2024-02-23T12:50:36;13.00;54.60
12329;DHT22;6230;52.390;10.256;2024-02-23T12:53:02;12.90;53.50
12329;DHT22;6230;52.390;10.256;2024-02-23T12:55:29;12.90;53.90
12329;DHT22;6230;52.390;10.256;2024-02-23T12:57:54;12.80;54.00
12329;DHT22;6230;52.390;10.256;2024-02-23T13:00:20;12.80;53.60
12329;DHT22;6230;52.390;10.256;2024-02-23T13:02:46;12.80;54.20
12329;DHT22;6230;52.390;10.256;2024-02-23T13:05:11;12.70;54.10
12329;DHT22;6230;52.390;10.256;2024-02-23T13:07:37;12.70;53.40
12329;DHT22;6230;52.390;10.256;2024-02-23T13:10:04;12.70;53.50
12329;DHT22;6230;52.390;10.256;2024-02-23T13:12:30;12.80;53.70
12329;DHT22;6230;52.390;10.256;2024-02-23T13:14:55;12.80;53.70
12329;DHT22;6230;52.390;10.256;2024-02-23T13:17:21;12.80;53.80
12329;DHT22;6230;52.390;10.256;2024-02-23T13:19:47;12.80;53.80
12329;DHT22;6230;52.390;10.256;2024-02-23T13:22:12;12.90;53.60
12329;DHT22;6230;52.390;10.256;2024-02-23T13:24:38;12.90;53.20
12329;DHT22;6230;52.390;10.256;2024-02-23T13:27:05;12.90;53.00
12329;DHT22;6230;52.390;10.256;2024-02-23T13:29:31;12.90;53.50
12329;DHT22;6230;52.390;10.256;2024-02-23T13:31:57;12.90;53.60
12329;DHT22;6230;52.390;10.256;2024-02-23T13:34:22;13.00;53.60
12329;DHT22;6230;52.390;10.256;2024-02-23T13:36:48;12.90;53.50
12329;DHT22;6230;52.390;10.256;2024-02-23T13:39:15;13.00;53.60
12329;DHT22;6230;52.390;10.256;2024-02-23T13:41:41;13.00;53.80
12329;DHT22;6230;52.390;10.256;2024-02-23T13:44:07;13.00;54.00
12329;DHT22;6230;52.390;10.256;2024-02-23T13:46:38;12.90;53.90
12329;DHT22;6230;52.390;10.256;2024-02-23T13:49:05;12.90;53.80
12329;DHT22;6230;52.390;10.256;2024-02-23T13:51:32;12.90;53.80
12329;DHT22;6230;52.390;10.256;2024-02-23T13:53:58;12.90;54.00
12329;DHT22;6230;52.390;10.256;2024-02-23T13:56:24;12.90;54.10
12329;DHT22;6230;52.390;10.256;2024-02-23T13:58:50;12.80;53.90
12329;DHT22;6230;52.390;10.256;2024-02-23T14:01:15;12.80;54.10
12329;DHT22;6230;52.390;10.256;2024-02-23T14:03:41;12.90;54.20
12329;DHT22;6230;52.390;10.256;2024-02-23T14:06:07;12.80;54.80
12329;DHT22;6230;52.390;10.256;2024-02-23T14:08:32;12.80;54.30
12329;DHT22;6230;52.390;10.256;2024-02-23T14:11:00;12.80;54.30
12329;DHT22;6230;52.390;10.256;2024-02-23T14:13:26;12.80;54.40
12329;DHT22;6230;52.390;10.256;2024-02-23T14:15:52;12.80;54.30
12329;DHT22;6230;52.390;10.256;2024-02-23T14:18:17;12.80;54.40
12329;DHT22;6230;52.390;10.256;2024-02-23T14:20:43;12.80;54.40
12329;DHT22;6230;52.390;10.256;2024-02-23T14:23:09;12.80;54.40
12329;DHT22;6230;52.390;10.256;2024-02-23T14:25:34;12.80;54.60
12329;DHT22;6230;52.390;10.256;2024-02-23T14:28:00;12.90;54.70
12329;DHT22;6230;52.390;10.256;2024-02-23T14:30:25;12.80;54.80
12329;DHT22;6230;52.390;10.256;2024-02-23T14:32:51;12.90;54.80
12329;DHT22;6230;52.390;10.256;2024-02-23T14:35:17;12.90;54.90
12329;DHT22;6230;52.390;10.256;2024-02-23T14:37:42;12.80;54.60
12329;DHT22;6230;52.390;10.256;2024-02-23T14:40:08;12.80;54.60
12329;DHT22;6230;52.390;10.256;2024-02-23T14:42:34;12.80;54.80
12329;DHT22;6230;52.390;10.256;2024-02-23T14:44:59;12.80;54.70
12329;DHT22;6230;52.390;10.256;2024-02-23T14:47:25;12.80;54.50
12329;DHT22;6230;52.390;10.256;2024-02-23T14:49:50;12.80;55.00
12329;DHT22;6230;52.390;10.256;2024-02-23T14:52:16;12.80;54.60
12329;DHT22;6230;52.390;10.256;2024-02-23T14:54:42;12.80;55.10
12329;DHT22;6230;52.390;10.256;2024-02-23T14:57:07;12.70;54.60
12329;DHT22;6230;52.390;10.256;2024-02-23T14:59:33;12.80;54.60
12329;DHT22;6230;52.390;10.256;2024-02-23T15:02:05;12.80;54.70
12329;DHT22;6230;52.390;10.256;2024-02-23T15:04:31;12.70;54.60
12329;DHT22;6230;52.390;10.256;2024-02-23T15:06:57;12.80;54.60
12329;DHT22;6230;52.390;10.256;2024-02-23T15:09:23;12.70;54.40
12329;DHT22;6230;52.390;10.256;2024-02-23T15:11:48;12.80;54.60
12329;DHT22;6230;52.390;10.256;2024-02-23T15:14:14;12.70;54.80
12329;DHT22;6230;52.390;10.256;2024-02-23T15:16:40;12.70;54.40
12329;DHT22;6230;52.390;10.256;2024-02-23T15:19:06;12.70;54.60
12329;DHT22;6230;52.390;10.256;2024-02-23T15:21:32;12.70;54.60
12329;DHT22;6230;52.390;10.256;2024-02-23T15:23:57;12.70;54.60
12329;DHT22;6230;52.390;10.256;2024-02-23T15:26:23;12.70;54.50